BHS138 MYAM-MYNN
Flight info
| Callsign | BHS138 |
|---|---|
| Flight time | 0h 20m |
| Altitude | 12000 |
| Route | DCT KURAY DCT HEKOP DCT |
| Aircraft | B732/M-SDFGHRWY/S |
Departure
| Time | 2026-05-08 00:11 |
|---|---|
| Airport | Leonard M. Thompson International Airport (MYAM) |
Arrival
| Time | 2026-05-08 00:31 |
|---|---|
| Airport | Lynden Pindling International Airport (MYNN) |
| Time | Latitude | Longitude | Altitude | Speed | Heading |
|---|---|---|---|---|---|
| 2026-05-08 00:06 | 26.51172 | -77.07896 | 18 ft | 0 kts | 238° |
| 2026-05-08 00:06 | 26.51158 | -77.07923 | 18 ft | 8 kts | 247° |
| 2026-05-08 00:06 | 26.51151 | -77.08005 | 18 ft | 11 kts | 268° |
| 2026-05-08 00:07 | 26.51148 | -77.08103 | 18 ft | 13 kts | 269° |
| 2026-05-08 00:07 | 26.51146 | -77.08224 | 18 ft | 17 kts | 269° |
| 2026-05-08 00:07 | 26.51142 | -77.08362 | 17 ft | 17 kts | 268° |
| 2026-05-08 00:07 | 26.51138 | -77.08501 | 17 ft | 18 kts | 268° |
| 2026-05-08 00:08 | 26.51134 | -77.08642 | 16 ft | 18 kts | 268° |
| 2026-05-08 00:08 | 26.51131 | -77.08786 | 15 ft | 18 kts | 268° |
| 2026-05-08 00:08 | 26.51127 | -77.08931 | 14 ft | 18 kts | 269° |
| 2026-05-08 00:08 | 26.51124 | -77.09077 | 14 ft | 18 kts | 267° |
| 2026-05-08 00:09 | 26.51119 | -77.09222 | 14 ft | 18 kts | 268° |
| 2026-05-08 00:09 | 26.51116 | -77.09362 | 14 ft | 17 kts | 268° |
| 2026-05-08 00:09 | 26.51114 | -77.09440 | 14 ft | 0 kts | 268° |
| 2026-05-08 00:09 | 26.51113 | -77.09450 | 14 ft | 3 kts | 259° |
| 2026-05-08 00:10 | 26.51076 | -77.09476 | 14 ft | 9 kts | 178° |
| 2026-05-08 00:10 | 26.51012 | -77.09473 | 14 ft | 9 kts | 168° |
| 2026-05-08 00:10 | 26.50991 | -77.09416 | 14 ft | 9 kts | 88° |
| 2026-05-08 00:10 | 26.50996 | -77.09148 | 14 ft | 71 kts | 88° |
| 2026-05-08 00:11 | 26.51018 | -77.08308 | 19 ft | 143 kts | 88° |
| 2026-05-08 00:11 | 26.51039 | -77.07047 | 355 ft | 176 kts | 89° |
| 2026-05-08 00:11 | 26.50942 | -77.05624 | 999 ft | 195 kts | 106° |
| 2026-05-08 00:11 | 26.50187 | -77.04339 | 1725 ft | 210 kts | 143° |
| 2026-05-08 00:12 | 26.48801 | -77.03864 | 2451 ft | 221 kts | 182° |
| 2026-05-08 00:12 | 26.47319 | -77.04358 | 3002 ft | 232 kts | 210° |
| 2026-05-08 00:12 | 26.45800 | -77.05122 | 3541 ft | 248 kts | 200° |
| 2026-05-08 00:12 | 26.44148 | -77.05739 | 4199 ft | 259 kts | 198° |
| 2026-05-08 00:13 | 26.42396 | -77.06356 | 4693 ft | 268 kts | 198° |
| 2026-05-08 00:13 | 26.40614 | -77.06974 | 5272 ft | 272 kts | 198° |
| 2026-05-08 00:13 | 26.38791 | -77.07602 | 5920 ft | 274 kts | 198° |
| 2026-05-08 00:13 | 26.36996 | -77.08221 | 6538 ft | 276 kts | 198° |
| 2026-05-08 00:14 | 26.35166 | -77.08851 | 7140 ft | 278 kts | 198° |
| 2026-05-08 00:14 | 26.33299 | -77.09493 | 7734 ft | 280 kts | 198° |
| 2026-05-08 00:14 | 26.31442 | -77.10132 | 8311 ft | 281 kts | 198° |
| 2026-05-08 00:14 | 26.29577 | -77.10773 | 8875 ft | 283 kts | 198° |
| 2026-05-08 00:15 | 26.27698 | -77.11419 | 9427 ft | 285 kts | 198° |
| 2026-05-08 00:15 | 26.25805 | -77.12070 | 9969 ft | 286 kts | 198° |
| 2026-05-08 00:15 | 26.23899 | -77.12724 | 10498 ft | 288 kts | 198° |
| 2026-05-08 00:15 | 26.21959 | -77.13391 | 10873 ft | 302 kts | 198° |
| 2026-05-08 00:16 | 26.19933 | -77.14087 | 11270 ft | 314 kts | 198° |
| 2026-05-08 00:16 | 26.17824 | -77.14809 | 11885 ft | 317 kts | 198° |
| 2026-05-08 00:16 | 26.15678 | -77.15546 | 12018 ft | 337 kts | 198° |
| 2026-05-08 00:16 | 26.13333 | -77.16351 | 12031 ft | 360 kts | 198° |
| 2026-05-08 00:17 | 26.10893 | -77.17187 | 12027 ft | 378 kts | 198° |
| 2026-05-08 00:17 | 26.08367 | -77.18051 | 12017 ft | 387 kts | 198° |
| 2026-05-08 00:17 | 26.05768 | -77.18941 | 12015 ft | 394 kts | 198° |
| 2026-05-08 00:17 | 26.03135 | -77.19842 | 12014 ft | 400 kts | 198° |
| 2026-05-08 00:18 | 26.00494 | -77.20745 | 12008 ft | 399 kts | 198° |
| 2026-05-08 00:18 | 25.97853 | -77.21648 | 12005 ft | 396 kts | 198° |
| 2026-05-08 00:18 | 25.95241 | -77.22540 | 12005 ft | 392 kts | 198° |
| 2026-05-08 00:18 | 25.92645 | -77.23427 | 12005 ft | 389 kts | 198° |
| 2026-05-08 00:19 | 25.90055 | -77.24311 | 12005 ft | 386 kts | 198° |
| 2026-05-08 00:19 | 25.87476 | -77.25191 | 12006 ft | 383 kts | 198° |
| 2026-05-08 00:19 | 25.84939 | -77.26057 | 12006 ft | 380 kts | 198° |
| 2026-05-08 00:19 | 25.82409 | -77.26919 | 12006 ft | 378 kts | 198° |
| 2026-05-08 00:20 | 25.79926 | -77.27765 | 12006 ft | 375 kts | 198° |
| 2026-05-08 00:20 | 25.77432 | -77.28615 | 12006 ft | 373 kts | 198° |
| 2026-05-08 00:20 | 25.74966 | -77.29454 | 12006 ft | 371 kts | 198° |
| 2026-05-08 00:20 | 25.72521 | -77.30286 | 12006 ft | 369 kts | 198° |
| 2026-05-08 00:21 | 25.70063 | -77.31123 | 12007 ft | 368 kts | 198° |
| 2026-05-08 00:21 | 25.67647 | -77.31944 | 12007 ft | 366 kts | 198° |
| 2026-05-08 00:21 | 25.65241 | -77.32762 | 12007 ft | 364 kts | 198° |
| 2026-05-08 00:21 | 25.62790 | -77.33595 | 12007 ft | 363 kts | 198° |
| 2026-05-08 00:22 | 25.60466 | -77.34383 | 11955 ft | 338 kts | 198° |
| 2026-05-08 00:22 | 25.58306 | -77.35116 | 11801 ft | 314 kts | 198° |
| 2026-05-08 00:22 | 25.56276 | -77.35805 | 11256 ft | 307 kts | 198° |
| 2026-05-08 00:22 | 25.54212 | -77.36506 | 10499 ft | 313 kts | 198° |
| 2026-05-08 00:23 | 25.52142 | -77.37209 | 10113 ft | 313 kts | 198° |
| 2026-05-08 00:23 | 25.50096 | -77.37903 | 9848 ft | 309 kts | 198° |
| 2026-05-08 00:23 | 25.48031 | -77.38602 | 9525 ft | 307 kts | 198° |
| 2026-05-08 00:23 | 25.46010 | -77.39287 | 9182 ft | 306 kts | 198° |
| 2026-05-08 00:24 | 25.43977 | -77.39976 | 8825 ft | 300 kts | 198° |
| 2026-05-08 00:24 | 25.42022 | -77.40637 | 8337 ft | 292 kts | 198° |
| 2026-05-08 00:24 | 25.40099 | -77.41289 | 7693 ft | 291 kts | 198° |
| 2026-05-08 00:24 | 25.38178 | -77.41939 | 7044 ft | 290 kts | 198° |
| 2026-05-08 00:25 | 25.36271 | -77.42584 | 6423 ft | 288 kts | 198° |
| 2026-05-08 00:25 | 25.34360 | -77.43230 | 5812 ft | 285 kts | 198° |
| 2026-05-08 00:25 | 25.32515 | -77.43853 | 5522 ft | 271 kts | 198° |
| 2026-05-08 00:25 | 25.30738 | -77.44453 | 5104 ft | 265 kts | 198° |
| 2026-05-08 00:26 | 25.28982 | -77.45055 | 4660 ft | 260 kts | 201° |
| 2026-05-08 00:26 | 25.27531 | -77.46134 | 4251 ft | 252 kts | 231° |
| 2026-05-08 00:26 | 25.26531 | -77.47663 | 3948 ft | 240 kts | 239° |
| 2026-05-08 00:26 | 25.25602 | -77.49187 | 3470 ft | 239 kts | 223° |
| 2026-05-08 00:27 | 25.24165 | -77.50034 | 2946 ft | 239 kts | 191° |
| 2026-05-08 00:27 | 25.22521 | -77.49953 | 2449 ft | 237 kts | 166° |
| 2026-05-08 00:27 | 25.20979 | -77.49380 | 2039 ft | 232 kts | 160° |
| 2026-05-08 00:27 | 25.19462 | -77.49104 | 2039 ft | 214 kts | 177° |
| 2026-05-08 00:28 | 25.17963 | -77.49096 | 1997 ft | 213 kts | 184° |
| 2026-05-08 00:28 | 25.16495 | -77.49271 | 1999 ft | 211 kts | 190° |
| 2026-05-08 00:28 | 25.15099 | -77.49593 | 1979 ft | 195 kts | 192° |
| 2026-05-08 00:28 | 25.13876 | -77.49892 | 2017 ft | 174 kts | 193° |
| 2026-05-08 00:29 | 25.12735 | -77.50173 | 1947 ft | 157 kts | 193° |
| 2026-05-08 00:29 | 25.11628 | -77.50440 | 1727 ft | 171 kts | 192° |
| 2026-05-08 00:29 | 25.10539 | -77.50693 | 1623 ft | 155 kts | 191° |
| 2026-05-08 00:29 | 25.09491 | -77.50784 | 1315 ft | 150 kts | 176° |
| 2026-05-08 00:30 | 25.08470 | -77.50572 | 1085 ft | 148 kts | 159° |
| 2026-05-08 00:30 | 25.07579 | -77.50098 | 795 ft | 142 kts | 147° |
| 2026-05-08 00:30 | 25.06815 | -77.49405 | 449 ft | 143 kts | 134° |
| 2026-05-08 00:30 | 25.06130 | -77.48627 | 221 ft | 142 kts | 133° |
| 2026-05-08 00:31 | 25.05442 | -77.47858 | 69 ft | 142 kts | 134° |
| 2026-05-08 00:31 | 25.04762 | -77.47106 | 29 ft | 127 kts | 134° |
| 2026-05-08 00:31 | 25.04266 | -77.46544 | 27 ft | 62 kts | 131° |
| 2026-05-08 00:31 | 25.04111 | -77.46262 | 26 ft | 23 kts | 101° |
| 2026-05-08 00:32 | 25.04134 | -77.46175 | 26 ft | 10 kts | 9° |
| 2026-05-08 00:32 | 25.04202 | -77.46222 | 26 ft | 15 kts | 316° |
| 2026-05-08 00:32 | 25.04296 | -77.46326 | 27 ft | 23 kts | 315° |
| 2026-05-08 00:32 | 25.04419 | -77.46461 | 27 ft | 25 kts | 316° |
| 2026-05-08 00:33 | 25.04544 | -77.46600 | 27 ft | 24 kts | 314° |
| 2026-05-08 00:33 | 25.04632 | -77.46697 | 28 ft | 14 kts | 316° |
| 2026-05-08 00:33 | 25.04688 | -77.46745 | 28 ft | 7 kts | 354° |
| 2026-05-08 00:33 | 25.04731 | -77.46713 | 28 ft | 7 kts | 44° |
| 2026-05-08 00:34 | 25.04769 | -77.46672 | 28 ft | 7 kts | 44° |
| 2026-05-08 00:34 | 25.04807 | -77.46632 | 28 ft | 7 kts | 51° |
| 2026-05-08 00:34 | 25.04801 | -77.46584 | 28 ft | 2 kts | 117° |
| 2026-05-08 00:34 | 25.04796 | -77.46574 | 28 ft | 3 kts | 118° |
| 2026-05-08 00:35 | 25.04771 | -77.46565 | 28 ft | 1 kts | 179° |
| 2026-05-08 00:35 | 25.04768 | -77.46565 | 28 ft | 0 kts | 179° |